createdAt,value
2023-04-16T00:03:41.779Z,14.17
2023-04-16T00:07:47.617Z,14.09
2023-04-16T00:11:53.136Z,13.88
2023-04-16T00:15:58.013Z,13.83
2023-04-16T00:19:59.379Z,13.86
2023-04-16T00:24:06.057Z,13.93
2023-04-16T00:28:18.473Z,14.01
2023-04-16T00:32:25.818Z,14.12
2023-04-16T00:36:28.346Z,14.47
2023-04-16T00:40:31.148Z,14.30
2023-04-16T00:44:51.961Z,14.14
2023-04-16T00:49:00.389Z,14.00
2023-04-16T00:53:10.745Z,13.86
2023-04-16T00:57:15.381Z,13.27
2023-04-16T01:01:23.129Z,13.02
2023-04-16T01:05:42.987Z,12.86
2023-04-16T01:09:53.924Z,12.87
2023-04-16T01:13:58.103Z,12.82
2023-04-16T01:18:02.848Z,12.79
2023-04-16T01:22:09.016Z,12.81
2023-04-16T01:26:20.353Z,12.80
2023-04-16T01:30:27.499Z,12.75
2023-04-16T01:34:46.469Z,12.56
2023-04-16T01:38:57.359Z,12.45
2023-04-16T01:43:05.126Z,12.44
2023-04-16T01:47:24.700Z,12.27
2023-04-16T01:51:44.233Z,12.38
2023-04-16T01:56:25.784Z,12.52
2023-04-16T02:10:29.166Z,12.34
2023-04-16T02:14:34.146Z,12.22
2023-04-16T02:18:47.383Z,12.15
2023-04-16T02:22:53.347Z,12.09
2023-04-16T02:27:03.519Z,12.25
2023-04-16T02:31:07.836Z,12.22
2023-04-16T02:35:11.450Z,12.32
2023-04-16T02:39:15.671Z,12.38
2023-04-16T02:43:18.777Z,12.41
2023-04-16T02:47:25.382Z,12.88
2023-04-16T02:51:29.172Z,13.32
2023-04-16T02:55:32.886Z,12.96
2023-04-16T02:59:34.660Z,12.68
2023-04-16T03:03:37.446Z,12.64
2023-04-16T03:07:41.687Z,12.59
2023-04-16T03:11:45.400Z,12.57
2023-04-16T03:15:54.229Z,12.74
2023-04-16T03:19:59.362Z,12.53
2023-04-16T03:24:02.675Z,12.43
2023-04-16T03:28:04.747Z,12.31
2023-04-16T03:32:09.790Z,12.06
2023-04-16T03:36:16.272Z,11.94
2023-04-16T03:41:05.049Z,12.11
2023-04-16T03:45:08.448Z,12.57
2023-04-16T03:49:14.927Z,12.72
2023-04-16T03:53:18.531Z,12.84
2023-04-16T04:01:54.126Z,13.03
2023-04-16T04:06:00.433Z,13.38
2023-04-16T04:10:08.617Z,13.34
2023-04-16T04:14:11.922Z,13.26
2023-04-16T04:18:14.480Z,13.01
2023-04-16T04:22:21.962Z,12.95
2023-04-16T04:26:29.783Z,12.99
2023-04-16T04:30:36.608Z,13.19
2023-04-16T04:34:42.788Z,13.48
2023-04-16T04:38:44.194Z,13.58
2023-04-16T04:42:56.042Z,13.65
2023-04-16T04:47:21.337Z,13.69
2023-04-16T04:51:38.185Z,13.81
2023-04-16T04:55:44.249Z,14.04
2023-04-16T05:00:04.155Z,14.16
2023-04-16T05:04:15.481Z,13.95
2023-04-16T05:08:16.284Z,13.68
2023-04-16T05:12:22.730Z,13.66
2023-04-16T05:16:54.471Z,13.88
2023-04-16T05:21:16.986Z,13.98
2023-04-16T05:25:52.145Z,14.06
2023-04-16T05:29:54.730Z,14.40
2023-04-16T05:33:59.016Z,14.66
2023-04-16T05:38:05.629Z,14.66
2023-04-16T05:42:07.566Z,14.78
2023-04-16T05:46:13.779Z,14.67
2023-04-16T05:50:27.796Z,14.87
2023-04-16T05:54:43.106Z,15.10
2023-04-16T05:58:53.015Z,15.19
2023-04-16T06:02:58.468Z,15.52
2023-04-16T06:07:17.349Z,15.76
2023-04-16T06:11:29.248Z,15.84
2023-04-16T06:15:30.842Z,15.94
2023-04-16T06:19:34.077Z,16.04
2023-04-16T06:23:44.404Z,16.08
2023-04-16T06:28:03.404Z,16.29
2023-04-16T06:32:07.550Z,16.24
2023-04-16T06:36:14.016Z,16.44
2023-04-16T06:40:21.343Z,16.54
2023-04-16T06:44:43.157Z,16.84
2023-04-16T06:48:59.839Z,17.01
2023-04-16T06:53:30.930Z,17.11
2023-04-16T06:57:49.340Z,17.26
2023-04-16T07:01:55.036Z,17.36
2023-04-16T07:05:55.960Z,17.46
2023-04-16T07:09:58.169Z,17.48
2023-04-16T07:14:03.292Z,17.63
2023-04-16T07:18:08.999Z,17.60
2023-04-16T07:22:09.059Z,17.75
2023-04-16T07:26:13.415Z,17.74
2023-04-16T07:30:23.210Z,17.73
2023-04-16T07:34:34.301Z,17.84
2023-04-16T07:38:35.745Z,17.87
2023-04-16T07:42:36.744Z,17.84
2023-04-16T07:46:47.486Z,18.00
2023-04-16T07:50:52.148Z,18.01
2023-04-16T07:54:58.129Z,18.21
2023-04-16T07:59:14.404Z,18.54
2023-04-16T08:03:26.321Z,19.03
2023-04-16T08:07:29.438Z,19.53
2023-04-16T08:11:35.513Z,19.93
2023-04-16T08:15:36.149Z,19.82
2023-04-16T08:19:38.039Z,19.98
2023-04-16T08:23:49.042Z,20.15
2023-04-16T08:27:52.768Z,20.13
2023-04-16T08:31:58.192Z,20.45
2023-04-16T08:35:58.765Z,20.49
2023-04-16T08:40:04.904Z,20.72
2023-04-16T08:44:12.612Z,20.83
2023-04-16T08:48:17.380Z,20.42
2023-04-16T08:52:19.287Z,20.30
2023-04-16T08:56:22.972Z,20.29
2023-04-16T09:00:26.113Z,20.67
2023-04-16T09:04:37.770Z,20.77
2023-04-16T09:08:38.182Z,20.98
2023-04-16T09:12:45.971Z,21.26
2023-04-16T09:16:59.112Z,21.27
2023-04-16T09:21:00.296Z,21.12
2023-04-16T09:25:11.972Z,21.37
2023-04-16T09:29:37.395Z,21.32
2023-04-16T09:33:41.650Z,21.16
2023-04-16T09:38:02.243Z,21.20
2023-04-16T09:42:17.131Z,21.85
2023-04-16T09:46:21.627Z,21.65
2023-04-16T09:50:24.351Z,21.67
2023-04-16T09:54:30.429Z,21.53
2023-04-16T09:59:06.211Z,21.89
2023-04-16T10:03:10.892Z,21.84
2023-04-16T10:07:21.377Z,22.09
2023-04-16T10:11:29.198Z,21.63
2023-04-16T10:15:36.277Z,21.60
2023-04-16T10:19:55.660Z,21.62
2023-04-16T10:23:56.097Z,21.72
2023-04-16T10:27:56.419Z,21.84
2023-04-16T10:31:57.779Z,22.01
2023-04-16T10:36:17.573Z,22.14
2023-04-16T10:40:36.055Z,22.17
2023-04-16T10:44:37.194Z,21.58
2023-04-16T10:48:49.253Z,21.12
2023-04-16T10:52:52.708Z,21.26
2023-04-16T10:56:56.213Z,20.95
2023-04-16T11:00:56.676Z,20.64
2023-04-16T11:05:02.426Z,20.67
2023-04-16T11:09:05.675Z,20.47
2023-04-16T11:13:10.169Z,20.32
2023-04-16T11:17:11.824Z,20.33
2023-04-16T11:21:20.659Z,20.10
2023-04-16T11:25:37.468Z,19.67
2023-04-16T11:29:37.603Z,19.35
2023-04-16T11:33:43.178Z,19.07
2023-04-16T11:37:52.603Z,18.90
2023-04-16T11:41:57.573Z,18.67
2023-04-16T11:45:59.828Z,18.51
2023-04-16T11:50:00.573Z,18.33
2023-04-16T11:54:05.813Z,18.11
2023-04-16T11:58:17.870Z,17.88
2023-04-16T12:02:17.601Z,17.64
2023-04-16T12:06:18.254Z,17.62
2023-04-16T12:10:19.352Z,17.47
2023-04-16T12:14:23.264Z,17.73
2023-04-16T12:18:28.715Z,17.48
2023-04-16T12:22:33.631Z,17.31
2023-04-16T12:26:43.959Z,17.40
2023-04-16T12:30:53.525Z,17.54
2023-04-16T12:34:54.118Z,17.63
2023-04-16T12:38:57.404Z,17.79
2023-04-16T12:42:57.353Z,17.73
2023-04-16T12:46:59.950Z,18.12
2023-04-16T12:51:00.606Z,18.28
2023-04-16T12:55:05.222Z,18.50
2023-04-16T12:59:10.270Z,18.68
2023-04-16T13:03:15.743Z,18.81
2023-04-16T13:07:16.890Z,19.01
2023-04-16T13:11:17.632Z,19.31
2023-04-16T13:15:31.378Z,19.46
2023-04-16T13:19:35.692Z,19.59
2023-04-16T13:23:40.148Z,18.82
2023-04-16T13:27:43.932Z,17.95
2023-04-16T13:31:47.657Z,17.72
2023-04-16T13:35:55.584Z,17.82
2023-04-16T13:39:56.740Z,17.77
2023-04-16T13:43:56.547Z,17.32
2023-04-16T13:47:57.430Z,17.24
2023-04-16T13:52:02.960Z,17.27
2023-04-16T13:56:07.288Z,17.45
2023-04-16T14:00:11.878Z,17.61
2023-04-16T14:04:14.035Z,17.46
2023-04-16T14:08:23.344Z,17.62
2023-04-16T14:12:24.297Z,17.97
2023-04-16T14:20:54.662Z,17.92
2023-04-16T14:25:02.864Z,17.79
2023-04-16T14:29:08.355Z,17.50
2023-04-16T14:33:14.810Z,17.34
2023-04-16T14:37:35.772Z,17.07
2023-04-16T14:41:42.763Z,17.50
2023-04-16T14:45:43.592Z,17.91
2023-04-16T14:49:50.865Z,17.98
2023-04-16T14:53:59.091Z,18.12
2023-04-16T14:58:07.096Z,17.79
2023-04-16T15:02:11.219Z,17.61
2023-04-16T15:06:14.737Z,17.44
2023-04-16T15:10:21.660Z,17.28
2023-04-16T15:14:27.654Z,17.18
2023-04-16T15:18:33.250Z,17.07
2023-04-16T15:22:33.341Z,16.96
2023-04-16T15:26:35.919Z,17.22
2023-04-16T15:30:44.416Z,17.19
2023-04-16T15:34:50.867Z,17.30
2023-04-16T15:38:57.101Z,17.19
2023-04-16T15:43:01.568Z,17.11
2023-04-16T15:47:11.532Z,16.83
2023-04-16T15:51:17.971Z,16.52
2023-04-16T15:55:24.767Z,16.40
2023-04-16T15:59:31.933Z,16.18
2023-04-16T16:03:36.029Z,15.97
2023-04-16T16:07:39.725Z,15.86
2023-04-16T16:11:42.524Z,15.70
2023-04-16T16:15:43.740Z,15.55
2023-04-16T16:19:53.274Z,15.41
2023-04-16T16:23:54.275Z,15.25
2023-04-16T16:27:59.414Z,15.14
2023-04-16T16:32:02.968Z,15.06
2023-04-16T16:36:12.058Z,15.06
2023-04-16T16:40:13.386Z,15.04
2023-04-16T16:44:22.871Z,14.87
2023-04-16T16:48:22.084Z,14.89
2023-04-16T16:52:27.844Z,14.93
2023-04-16T16:56:34.227Z,14.95
2023-04-16T17:00:36.360Z,14.76
2023-04-16T17:04:36.181Z,14.70
2023-04-16T17:08:53.295Z,14.62
2023-04-16T17:12:56.550Z,14.54
2023-04-16T17:17:02.651Z,14.46
2023-04-16T17:21:15.936Z,14.55
2023-04-16T17:25:20.519Z,14.45
2023-04-16T17:29:28.713Z,14.51
2023-04-16T17:33:37.235Z,14.45
2023-04-16T17:37:45.884Z,14.56
2023-04-16T17:41:57.674Z,14.66
2023-04-16T17:45:59.618Z,14.72
2023-04-16T17:50:04.585Z,14.87
2023-04-16T17:54:07.112Z,14.90
2023-04-16T17:58:13.250Z,14.82
2023-04-16T18:02:13.657Z,14.79
2023-04-16T18:06:14.190Z,14.79
2023-04-16T18:10:18.242Z,14.69
2023-04-16T18:14:22.253Z,14.51
2023-04-16T18:18:23.112Z,14.48
2023-04-16T18:22:29.283Z,14.48
2023-04-16T18:26:36.330Z,14.38
2023-04-16T18:30:42.692Z,14.24
2023-04-16T18:34:51.629Z,14.21
2023-04-16T18:39:15.502Z,14.22
2023-04-16T18:43:22.967Z,14.16
2023-04-16T18:47:29.768Z,14.21
2023-04-16T18:51:42.288Z,14.02
2023-04-16T18:55:53.966Z,14.16
2023-04-16T19:00:07.127Z,13.98
2023-04-16T19:04:09.164Z,13.97
2023-04-16T19:08:12.492Z,13.95
2023-04-16T19:12:13.240Z,13.97
2023-04-16T19:16:15.908Z,13.96
2023-04-16T19:20:19.030Z,13.80
2023-04-16T19:24:27.507Z,13.67
2023-04-16T19:28:28.190Z,13.63
2023-04-16T19:32:32.611Z,13.51
2023-04-16T19:36:45.202Z,13.45
2023-04-16T19:40:59.505Z,13.43
2023-04-16T19:45:07.219Z,13.33
2023-04-16T19:49:18.922Z,13.28
2023-04-16T19:53:24.356Z,13.16
2023-04-16T19:57:30.406Z,13.09
2023-04-16T20:01:31.924Z,13.04
2023-04-16T20:05:35.545Z,12.88
2023-04-16T20:09:48.909Z,12.90
2023-04-16T20:13:59.229Z,12.87
2023-04-16T20:18:09.085Z,12.68
2023-04-16T20:22:15.297Z,12.49
2023-04-16T20:26:20.914Z,12.37
2023-04-16T20:30:39.703Z,12.40
2023-04-16T20:35:00.227Z,12.37
2023-04-16T20:39:25.468Z,12.26
2023-04-16T20:43:29.828Z,12.08
2023-04-16T20:47:43.860Z,12.14
2023-04-16T20:52:07.813Z,12.11
2023-04-16T20:56:14.671Z,12.11
2023-04-16T21:05:04.227Z,11.93
2023-04-16T21:09:16.335Z,12.01
2023-04-16T21:13:22.168Z,11.92
2023-04-16T21:17:36.795Z,11.72
2023-04-16T21:21:47.701Z,11.52
2023-04-16T21:26:08.152Z,11.44
2023-04-16T21:30:14.535Z,11.48
2023-04-16T21:34:49.723Z,11.58
2023-04-16T21:39:18.757Z,11.49
2023-04-16T21:43:49.416Z,11.42
2023-04-16T21:48:08.423Z,11.52
2023-04-16T21:57:00.381Z,11.47
2023-04-16T22:01:01.961Z,11.44
2023-04-16T22:05:21.684Z,11.49
2023-04-16T22:09:44.355Z,11.42
2023-04-16T22:14:11.930Z,11.46
2023-04-16T22:18:35.945Z,11.46
2023-04-16T22:23:03.057Z,11.40
2023-04-16T22:27:22.677Z,11.53
2023-04-16T22:31:33.312Z,11.66
2023-04-16T22:36:05.804Z,11.45
2023-04-16T22:40:54.165Z,11.37
2023-04-16T22:50:18.877Z,11.29
2023-04-16T22:54:49.777Z,11.25
2023-04-16T22:59:09.361Z,11.28
2023-04-16T23:03:39.121Z,11.27
2023-04-16T23:12:50.827Z,11.22
2023-04-16T23:17:03.375Z,11.13
2023-04-16T23:21:41.262Z,11.32
2023-04-16T23:25:58.717Z,11.37
2023-04-16T23:30:22.078Z,11.26
2023-04-16T23:34:38.817Z,11.19
2023-04-16T23:43:44.571Z,11.43
2023-04-16T23:47:52.247Z,11.37
2023-04-16T23:52:10.432Z,11.34
2023-04-16T23:56:35.056Z,11.27
